createdAt,value
2022-08-22T00:00:15.358Z,64.88
2022-08-22T00:03:00.472Z,56.87
2022-08-22T00:03:17.634Z,65.34
2022-08-22T00:06:14.878Z,67.17
2022-08-22T00:09:27.253Z,67.61
2022-08-22T00:12:18.690Z,68.52
2022-08-22T00:15:03.223Z,69.35
2022-08-22T00:17:54.112Z,69.43
2022-08-22T00:20:44.035Z,68.68
2022-08-22T00:23:31.395Z,69.69
2022-08-22T00:26:37.343Z,70.60
2022-08-22T00:30:01.221Z,69.94
2022-08-22T00:32:56.924Z,69.45
2022-08-22T00:35:58.689Z,70.95
2022-08-22T00:38:39.166Z,72.08
2022-08-22T00:41:44.897Z,70.86
2022-08-22T00:44:54.756Z,72.02
2022-08-22T00:47:40.770Z,72.75
2022-08-22T00:50:55.395Z,72.71
2022-08-22T00:54:17.994Z,72.40
2022-08-22T00:57:32.187Z,73.71
2022-08-22T01:00:24.828Z,74.55
2022-08-22T01:03:34.720Z,75.14
2022-08-22T01:06:21.224Z,75.45
2022-08-22T01:09:12.893Z,75.30
2022-08-22T01:12:08.160Z,74.89
2022-08-22T01:14:59.353Z,75.47
2022-08-22T01:17:35.702Z,75.81
2022-08-22T01:20:49.226Z,76.05
2022-08-22T01:24:02.726Z,74.90
2022-08-22T01:26:57.693Z,75.80
2022-08-22T01:29:54.466Z,76.29
2022-08-22T01:33:14.528Z,77.68
2022-08-22T01:36:21.629Z,78.44
2022-08-22T01:39:37.415Z,79.33
2022-08-22T01:42:35.774Z,80.21
2022-08-22T01:45:37.637Z,80.74
2022-08-22T01:48:27.296Z,80.56
2022-08-22T01:51:21.358Z,80.83
2022-08-22T01:54:08.772Z,81.10
2022-08-22T01:56:48.446Z,80.86
2022-08-22T01:59:46.236Z,80.08
2022-08-22T02:03:06.448Z,80.63
2022-08-22T02:06:02.956Z,80.12
2022-08-22T02:09:38.245Z,80.14
2022-08-22T02:12:21.652Z,80.78
2022-08-22T02:15:07.505Z,80.06
2022-08-22T02:18:01.146Z,80.26
2022-08-22T02:20:57.944Z,80.86
2022-08-22T02:23:32.445Z,80.87
2022-08-22T02:26:51.440Z,80.82
2022-08-22T02:29:49.058Z,79.89
2022-08-22T02:32:49.928Z,79.31
2022-08-22T02:35:48.010Z,78.99
2022-08-22T02:38:59.534Z,80.19
2022-08-22T02:41:40.097Z,80.51
2022-08-22T02:44:24.939Z,80.11
2022-08-22T02:47:13.570Z,80.26
2022-08-22T02:50:19.847Z,80.27
2022-08-22T02:53:04.125Z,80.50
2022-08-22T02:55:51.301Z,80.87
2022-08-22T02:58:45.603Z,80.66
2022-08-22T03:01:34.481Z,79.89
2022-08-22T03:04:38.384Z,79.74
2022-08-22T03:07:25.938Z,79.52
2022-08-22T03:10:20.636Z,79.25
2022-08-22T03:13:02.390Z,79.08
2022-08-22T03:15:54.850Z,78.71
2022-08-22T03:18:49.782Z,78.59
2022-08-22T03:21:31.673Z,78.32
2022-08-22T03:24:20.404Z,77.90
2022-08-22T03:27:44.659Z,77.82
2022-08-22T03:30:36.125Z,77.79
2022-08-22T03:33:27.704Z,77.47
2022-08-22T03:36:31.402Z,77.52
2022-08-22T03:39:20.092Z,77.25
2022-08-22T03:42:04.772Z,76.80
2022-08-22T03:45:03.894Z,76.57
2022-08-22T03:48:18.431Z,76.64
2022-08-22T03:51:35.569Z,76.77
2022-08-22T03:54:48.164Z,76.61
2022-08-22T03:57:48.112Z,76.40
2022-08-22T04:00:26.805Z,76.40
2022-08-22T04:03:39.740Z,76.33
2022-08-22T04:06:53.748Z,76.26
2022-08-22T04:09:52.240Z,75.90
2022-08-22T04:12:48.833Z,75.61
2022-08-22T04:15:30.525Z,75.31
2022-08-22T04:18:33.506Z,75.12
2022-08-22T04:21:28.202Z,74.91
2022-08-22T04:24:33.298Z,74.72
2022-08-22T04:27:16.701Z,74.79
2022-08-22T04:30:16.385Z,74.48
2022-08-22T04:33:01.970Z,74.26
2022-08-22T04:35:59.331Z,74.21
2022-08-22T04:38:51.864Z,73.89
2022-08-22T04:42:16.266Z,73.69
2022-08-22T04:45:06.237Z,72.75
2022-08-22T04:48:09.253Z,72.22
2022-08-22T04:51:00.733Z,71.58
2022-08-22T04:53:50.726Z,71.24
2022-08-22T04:56:39.519Z,71.17
2022-08-22T04:59:21.139Z,71.24
2022-08-22T05:02:08.664Z,71.31
2022-08-22T05:04:54.323Z,71.09
2022-08-22T05:07:38.014Z,70.99
2022-08-22T05:10:30.864Z,70.81
2022-08-22T05:13:19.984Z,70.92
2022-08-22T05:16:02.271Z,70.95
2022-08-22T05:18:45.932Z,70.75
2022-08-22T05:21:30.742Z,70.59
2022-08-22T05:24:14.238Z,70.73
2022-08-22T05:26:57.115Z,70.43
2022-08-22T05:29:35.644Z,70.52
2022-08-22T05:32:25.407Z,70.60
2022-08-22T05:35:06.048Z,70.59
2022-08-22T05:37:51.035Z,70.48
2022-08-22T05:40:31.487Z,70.49
2022-08-22T05:43:17.303Z,69.74
2022-08-22T05:45:55.936Z,69.67
2022-08-22T05:49:02.711Z,69.78
2022-08-22T05:51:53.314Z,69.06
2022-08-22T05:54:34.974Z,67.48
2022-08-22T05:57:21.630Z,66.38
2022-08-22T06:00:15.109Z,65.87
2022-08-22T06:03:22.196Z,64.88
2022-08-22T06:06:06.656Z,65.11
2022-08-22T06:09:07.329Z,64.39
2022-08-22T06:12:15.048Z,63.06
2022-08-22T06:15:25.729Z,62.70
2022-08-22T06:18:12.437Z,61.92
2022-08-22T06:21:05.984Z,61.34
2022-08-22T06:23:51.562Z,60.80
2022-08-22T06:26:40.156Z,61.01
2022-08-22T06:29:26.053Z,60.54
2022-08-22T06:32:03.361Z,61.03
2022-08-22T06:34:48.213Z,60.07
2022-08-22T06:37:36.579Z,59.62
2022-08-22T06:40:17.314Z,59.30
2022-08-22T06:42:52.495Z,59.24
2022-08-22T06:45:38.380Z,59.25
2022-08-22T06:48:21.965Z,59.03
2022-08-22T06:51:05.557Z,58.91
2022-08-22T06:53:55.080Z,59.47
2022-08-22T06:56:44.766Z,59.80
2022-08-22T06:59:26.269Z,59.72
2022-08-22T07:02:14.033Z,59.46
2022-08-22T07:04:55.501Z,58.82
2022-08-22T07:07:31.999Z,58.33
2022-08-22T07:10:13.566Z,57.78
2022-08-22T07:12:56.426Z,57.46
2022-08-22T07:15:39.790Z,57.07
2022-08-22T07:18:23.789Z,56.05
2022-08-22T07:21:06.164Z,54.79
2022-08-22T07:23:50.723Z,53.50
2022-08-22T07:26:42.949Z,53.27
2022-08-22T07:29:36.989Z,54.06
2022-08-22T07:32:19.182Z,53.87
2022-08-22T07:35:11.841Z,53.48
2022-08-22T07:38:19.471Z,52.34
2022-08-22T07:41:05.179Z,50.92
2022-08-22T07:43:49.473Z,50.26
2022-08-22T07:46:41.086Z,49.34
2022-08-22T07:49:25.477Z,48.09
2022-08-22T07:52:11.296Z,48.01
2022-08-22T07:55:09.600Z,49.03
2022-08-22T07:58:06.593Z,48.43
2022-08-22T08:00:48.882Z,46.43
2022-08-22T08:03:32.132Z,47.34
2022-08-22T08:06:10.609Z,45.93
2022-08-22T08:08:48.302Z,46.07
2022-08-22T08:11:26.534Z,45.27
2022-08-22T08:14:10.080Z,44.42
2022-08-22T08:17:16.930Z,43.69
2022-08-22T08:19:54.976Z,43.30
2022-08-22T08:22:32.691Z,42.97
2022-08-22T08:25:13.080Z,42.73
2022-08-22T08:28:11.467Z,42.71
2022-08-22T08:31:01.820Z,43.20
2022-08-22T08:33:37.539Z,43.31
2022-08-22T08:36:56.831Z,42.28
2022-08-22T08:39:41.374Z,42.42
2022-08-22T08:42:58.517Z,41.81
2022-08-22T08:45:56.401Z,41.64
2022-08-22T08:49:06.678Z,40.68
2022-08-22T08:51:51.623Z,38.83
2022-08-22T08:54:56.022Z,38.66
2022-08-22T08:57:52.380Z,38.96
2022-08-22T09:00:48.902Z,37.80
2022-08-22T09:04:01.735Z,37.71
2022-08-22T09:06:56.592Z,39.11
2022-08-22T09:09:57.507Z,38.82
2022-08-22T09:13:26.088Z,38.03
2022-08-22T09:19:07.039Z,37.34
2022-08-22T09:22:21.428Z,37.33
2022-08-22T09:25:36.808Z,39.27
2022-08-22T09:28:55.477Z,36.91
2022-08-22T09:32:07.166Z,36.10
2022-08-22T09:34:53.263Z,35.55
2022-08-22T09:37:37.729Z,35.57
2022-08-22T09:40:16.361Z,37.62
2022-08-22T09:40:33.368Z,34.75
2022-08-22T09:43:24.270Z,34.98
2022-08-22T09:46:18.672Z,35.96
2022-08-22T09:49:05.531Z,35.68
2022-08-22T09:52:33.909Z,35.42
2022-08-22T09:55:35.530Z,35.69
2022-08-22T09:58:41.694Z,35.12
2022-08-22T10:01:47.878Z,34.67
2022-08-22T10:04:32.187Z,35.65
2022-08-22T10:07:23.099Z,34.87
2022-08-22T10:10:21.452Z,34.93
2022-08-22T10:13:14.862Z,35.13
2022-08-22T10:16:19.087Z,35.15
2022-08-22T10:19:05.371Z,34.32
2022-08-22T10:21:45.719Z,34.58
2022-08-22T10:25:08.371Z,34.79
2022-08-22T10:28:21.261Z,35.10
2022-08-22T10:31:27.450Z,35.33
2022-08-22T10:34:28.700Z,35.57
2022-08-22T10:37:50.365Z,36.23
2022-08-22T10:40:31.673Z,36.71
2022-08-22T10:43:48.041Z,37.21
2022-08-22T10:46:38.307Z,38.35
2022-08-22T10:49:22.588Z,39.25
2022-08-22T10:52:15.773Z,40.17
2022-08-22T10:55:22.683Z,40.30
2022-08-22T10:58:10.776Z,40.69
2022-08-22T11:01:37.035Z,41.16
2022-08-22T11:04:33.975Z,41.65
2022-08-22T11:07:29.644Z,42.01
2022-08-22T11:10:11.999Z,41.95
2022-08-22T11:13:16.438Z,43.06
2022-08-22T11:16:20.213Z,44.01
2022-08-22T11:19:15.851Z,44.38
2022-08-22T11:22:03.649Z,44.95
2022-08-22T11:25:08.942Z,44.97
2022-08-22T11:28:05.495Z,45.06
2022-08-22T11:31:14.618Z,45.27
2022-08-22T11:34:13.718Z,44.87
2022-08-22T11:36:57.272Z,45.62
2022-08-22T11:39:42.444Z,48.43
2022-08-22T11:42:59.095Z,47.54
2022-08-22T11:45:47.992Z,45.70
2022-08-22T11:48:48.709Z,44.54
2022-08-22T11:52:00.437Z,39.32
2022-08-22T11:54:48.068Z,39.15
2022-08-22T11:57:39.078Z,39.58
2022-08-22T12:00:31.724Z,39.23
2022-08-22T12:03:39.839Z,37.18
2022-08-22T12:06:47.236Z,37.35
2022-08-22T12:09:47.696Z,35.28
2022-08-22T12:12:26.696Z,35.28
2022-08-22T12:15:13.980Z,34.94
2022-08-22T12:18:10.902Z,33.97
2022-08-22T12:21:18.873Z,34.97
2022-08-22T12:24:21.446Z,32.08
2022-08-22T12:27:11.706Z,31.75
2022-08-22T12:30:21.223Z,32.48
2022-08-22T12:33:26.870Z,31.73
2022-08-22T12:36:18.015Z,32.40
2022-08-22T12:39:28.924Z,31.44
2022-08-22T12:42:13.303Z,31.10
2022-08-22T12:45:08.103Z,30.23
2022-08-22T12:48:24.895Z,29.36
2022-08-22T12:51:18.321Z,30.54
2022-08-22T12:54:21.616Z,31.37
2022-08-22T12:56:54.163Z,31.57
2022-08-22T12:59:36.213Z,31.98
2022-08-22T13:02:23.638Z,33.43
2022-08-22T13:05:27.584Z,32.29
2022-08-22T13:08:12.998Z,31.95
2022-08-22T13:10:57.049Z,31.22
2022-08-22T13:13:38.927Z,31.12
2022-08-22T13:16:20.856Z,30.21
2022-08-22T13:19:07.868Z,30.65
2022-08-22T13:21:55.061Z,29.45
2022-08-22T13:24:40.983Z,28.84
2022-08-22T13:27:40.621Z,27.40
2022-08-22T13:30:37.588Z,27.14
2022-08-22T13:33:41.498Z,27.12
2022-08-22T13:36:24.129Z,28.52
2022-08-22T13:39:19.711Z,28.35
2022-08-22T13:42:04.439Z,28.57
2022-08-22T13:44:55.978Z,28.18
2022-08-22T13:47:34.551Z,27.53
2022-08-22T13:50:26.736Z,26.85
2022-08-22T13:53:37.369Z,26.49
2022-08-22T13:56:22.424Z,26.84
2022-08-22T13:59:03.740Z,26.32
2022-08-22T14:01:56.734Z,26.19
2022-08-22T14:04:36.690Z,26.16
2022-08-22T14:07:13.021Z,25.86
2022-08-22T14:10:14.987Z,26.03
2022-08-22T14:12:58.981Z,25.85
2022-08-22T14:15:44.907Z,25.26
2022-08-22T14:18:45.685Z,25.43
2022-08-22T14:21:33.498Z,25.59
2022-08-22T14:24:27.027Z,25.18
2022-08-22T14:27:17.656Z,25.45
2022-08-22T14:30:00.230Z,25.11
2022-08-22T14:32:53.498Z,24.86
2022-08-22T14:35:52.675Z,25.23
2022-08-22T14:38:33.574Z,24.80
2022-08-22T14:41:19.779Z,24.82
2022-08-22T14:43:59.064Z,25.30
2022-08-22T14:46:48.995Z,26.31
2022-08-22T14:49:30.902Z,28.57
2022-08-22T14:52:19.619Z,29.03
2022-08-22T14:55:15.836Z,30.14
2022-08-22T14:57:58.687Z,31.51
2022-08-22T15:00:41.983Z,32.93
2022-08-22T15:03:42.720Z,34.88
2022-08-22T15:06:38.198Z,37.08
2022-08-22T15:09:36.965Z,39.13
2022-08-22T15:12:28.470Z,40.22
2022-08-22T15:15:09.385Z,41.09
2022-08-22T15:17:54.590Z,42.26
2022-08-22T15:20:45.253Z,43.08
2022-08-22T15:23:29.943Z,43.65
2022-08-22T15:26:13.312Z,44.00
2022-08-22T15:29:00.218Z,44.19
2022-08-22T15:31:39.702Z,45.12
2022-08-22T15:34:33.608Z,45.60
2022-08-22T15:37:21.078Z,46.14
2022-08-22T15:40:12.509Z,46.63
2022-08-22T15:42:55.723Z,46.34
2022-08-22T15:45:39.031Z,45.51
2022-08-22T15:48:34.613Z,44.76
2022-08-22T15:51:17.337Z,43.71
2022-08-22T15:54:16.591Z,42.95
2022-08-22T15:57:21.520Z,42.70
2022-08-22T16:00:12.012Z,42.96
2022-08-22T16:03:12.054Z,43.24
2022-08-22T16:06:07.566Z,43.60
2022-08-22T16:08:55.502Z,43.83
2022-08-22T16:11:37.081Z,44.44
2022-08-22T16:14:21.545Z,44.99
2022-08-22T16:17:10.564Z,45.73
2022-08-22T16:19:47.865Z,46.61
2022-08-22T16:22:27.970Z,47.42
2022-08-22T16:25:07.103Z,47.58
2022-08-22T16:27:59.052Z,48.51
2022-08-22T16:30:40.343Z,49.23
2022-08-22T16:33:33.310Z,49.41
2022-08-22T16:36:25.464Z,50.00
2022-08-22T16:39:01.303Z,50.43
2022-08-22T16:41:43.926Z,50.46
2022-08-22T16:44:25.681Z,50.97
2022-08-22T16:47:14.610Z,51.90
2022-08-22T16:49:59.345Z,52.21
2022-08-22T16:52:33.729Z,52.54
2022-08-22T16:55:36.609Z,52.63
2022-08-22T16:58:56.920Z,53.65
2022-08-22T17:02:00.997Z,53.69
2022-08-22T17:04:54.570Z,54.66
2022-08-22T17:07:44.431Z,54.45
2022-08-22T17:10:17.968Z,54.88
2022-08-22T17:13:09.928Z,55.37
2022-08-22T17:16:01.529Z,56.11
2022-08-22T17:18:55.890Z,56.58
2022-08-22T17:21:34.126Z,56.18
2022-08-22T17:24:32.090Z,57.25
2022-08-22T17:27:34.710Z,56.60
2022-08-22T17:30:34.912Z,56.90
2022-08-22T17:33:31.582Z,57.71
2022-08-22T17:36:50.441Z,57.91
2022-08-22T17:40:19.820Z,58.65
2022-08-22T17:43:42.992Z,59.41
2022-08-22T17:46:44.629Z,61.17
2022-08-22T17:49:20.035Z,61.44
2022-08-22T17:52:24.425Z,61.25
2022-08-22T17:55:24.022Z,62.44
2022-08-22T17:58:31.870Z,62.80
2022-08-22T18:01:33.598Z,63.01
2022-08-22T18:04:25.750Z,62.97
2022-08-22T18:07:30.524Z,62.98
2022-08-22T18:10:09.173Z,63.56
2022-08-22T18:13:04.761Z,63.44
2022-08-22T18:16:11.702Z,63.98
2022-08-22T18:19:22.372Z,64.44
2022-08-22T18:22:38.370Z,64.68
2022-08-22T18:25:25.535Z,64.28
2022-08-22T18:28:19.061Z,64.28
2022-08-22T18:31:14.008Z,64.80
2022-08-22T18:34:03.267Z,65.37
2022-08-22T18:36:54.846Z,66.07
2022-08-22T18:39:50.848Z,65.93
2022-08-22T18:42:41.897Z,65.65
2022-08-22T18:45:50.199Z,66.71
2022-08-22T18:48:33.455Z,66.77
2022-08-22T18:51:30.617Z,67.22
2022-08-22T18:54:09.974Z,67.20
2022-08-22T18:57:11.029Z,67.35
2022-08-22T19:00:05.557Z,67.60
2022-08-22T19:03:17.580Z,67.56
2022-08-22T19:06:07.408Z,67.20
2022-08-22T19:09:28.563Z,67.41
2022-08-22T19:12:25.880Z,67.65
2022-08-22T19:15:12.242Z,67.94
2022-08-22T19:18:01.237Z,67.60
2022-08-22T19:20:59.894Z,67.03
2022-08-22T19:23:42.204Z,68.25
2022-08-22T19:26:21.641Z,67.93
2022-08-22T19:29:10.879Z,67.53
2022-08-22T19:31:45.110Z,67.49
2022-08-22T19:34:30.507Z,67.96
2022-08-22T19:37:32.861Z,67.76
2022-08-22T19:40:12.915Z,68.15
2022-08-22T19:42:52.535Z,68.19
2022-08-22T19:45:34.763Z,68.05
2022-08-22T19:48:14.969Z,68.19
2022-08-22T19:51:35.624Z,68.10
2022-08-22T19:54:23.482Z,68.19
2022-08-22T19:57:16.706Z,68.44
2022-08-22T20:00:14.938Z,68.12
2022-08-22T20:03:03.704Z,67.88
2022-08-22T20:05:57.028Z,67.88
2022-08-22T20:08:47.657Z,68.21
2022-08-22T20:11:26.071Z,68.56
2022-08-22T20:14:30.693Z,68.24
2022-08-22T20:17:25.509Z,68.70
2022-08-22T20:20:41.207Z,68.36
2022-08-22T20:23:28.312Z,68.46
2022-08-22T20:26:07.807Z,68.75
2022-08-22T20:28:41.205Z,68.51
2022-08-22T20:31:29.162Z,68.80
2022-08-22T20:34:15.679Z,69.22
2022-08-22T20:37:16.072Z,69.38
2022-08-22T20:39:59.243Z,69.03
2022-08-22T20:42:38.117Z,69.24
2022-08-22T20:45:29.595Z,69.69
2022-08-22T20:48:14.448Z,70.21
2022-08-22T20:50:56.059Z,70.11
2022-08-22T20:53:35.787Z,70.23
2022-08-22T20:56:12.349Z,70.02
2022-08-22T20:58:53.157Z,70.32
2022-08-22T21:01:29.757Z,70.68
2022-08-22T21:04:10.553Z,70.50
2022-08-22T21:06:50.375Z,70.25
2022-08-22T21:09:46.789Z,70.00
2022-08-22T21:12:26.592Z,70.47
2022-08-22T21:15:08.484Z,70.40
2022-08-22T21:17:51.007Z,70.61
2022-08-22T21:20:36.799Z,70.95
2022-08-22T21:23:18.396Z,70.73
2022-08-22T21:25:57.119Z,71.20
2022-08-22T21:28:38.057Z,70.85
2022-08-22T21:31:19.583Z,70.70
2022-08-22T21:33:58.174Z,71.12
2022-08-22T21:36:39.083Z,70.89
2022-08-22T21:39:32.637Z,70.68
2022-08-22T21:42:18.569Z,71.13
2022-08-22T21:45:05.087Z,71.31
2022-08-22T21:47:45.904Z,70.62
2022-08-22T21:50:27.836Z,70.87
2022-08-22T21:53:12.053Z,72.25
2022-08-22T21:55:53.952Z,71.64
2022-08-22T21:58:37.367Z,71.62
2022-08-22T22:01:29.067Z,71.91
2022-08-22T22:04:07.197Z,71.74
2022-08-22T22:06:42.597Z,71.61
2022-08-22T22:09:25.598Z,71.45
2022-08-22T22:12:10.240Z,71.42
2022-08-22T22:14:53.051Z,72.21
2022-08-22T22:17:31.927Z,72.95
2022-08-22T22:20:12.385Z,73.64
2022-08-22T22:22:58.112Z,73.83
2022-08-22T22:25:42.128Z,73.96
2022-08-22T22:28:20.540Z,74.19
2022-08-22T22:31:02.760Z,74.04
2022-08-22T22:33:42.026Z,73.91
2022-08-22T22:36:29.987Z,74.04
2022-08-22T22:39:11.772Z,73.79
2022-08-22T22:41:51.502Z,74.02
2022-08-22T22:44:29.980Z,73.82
2022-08-22T22:47:11.869Z,74.12
2022-08-22T22:49:52.381Z,74.46
2022-08-22T22:52:33.940Z,74.33
2022-08-22T22:55:24.143Z,74.53
2022-08-22T22:58:03.883Z,74.54
2022-08-22T23:00:47.356Z,74.72
2022-08-22T23:03:25.142Z,74.16
2022-08-22T23:06:05.724Z,74.12
2022-08-22T23:08:47.000Z,74.72
2022-08-22T23:11:31.198Z,74.63
2022-08-22T23:14:13.117Z,74.57
2022-08-22T23:16:50.623Z,74.47
2022-08-22T23:19:30.599Z,74.47
2022-08-22T23:22:11.066Z,73.79
2022-08-22T23:24:50.985Z,74.11
2022-08-22T23:27:31.749Z,73.96
2022-08-22T23:30:14.434Z,74.02
2022-08-22T23:32:57.951Z,74.12
2022-08-22T23:35:40.208Z,74.07
2022-08-22T23:38:21.403Z,74.43
2022-08-22T23:41:01.351Z,74.49
2022-08-22T23:43:40.894Z,74.20
2022-08-22T23:46:21.890Z,74.86
2022-08-22T23:49:00.355Z,74.29
2022-08-22T23:51:40.294Z,74.14
2022-08-22T23:54:20.922Z,73.84
2022-08-22T23:57:03.782Z,74.49
2022-08-22T23:59:57.914Z,74.35
